ROMMA est une association bénévole à but non lucratif. Votre soutien est indispensable : ADHERER à ROMMA ou FAIRE un DON

Crest - (26, Drôme)

Vallée de la Drôme (315 m)   Longitude: 5°2' E   Latitude: 44°44' N Station partenaire n°62
 

Détail journalier du     <<     >>

Température Precipitation Humidité Pression Vent Dir Rafale Dir. rafale Ensol.
Heure (°C) (mm) (%) (hPa) (km/h) (km/h) (min)
01:00 1.1089102500---0
02:00 0.908910241SSE6SE0
03:00 0.908810243SSE8SSE0
04:00 0.4088102403S0
05:00 0.708410243SSE8SSE0
06:00 0.208410243SE8SE0
07:00 0.208410242SSE6SE0
08:00 0.708210252SSE10SE0
09:00 1.108410251SE8SE30
10:00 2.907510252SE6SE60
11:00 5.106610252SE10SE60
12:00 7.805710242ENE8SE57
13:00 8.905810231ESE6SE60
14:00 10.005310232ESE5ESE53
15:00 11.204410221ESE5ESE57
16:00 10.905610221ESE3ESE60
17:00 8.006310211ESE10SE25
18:00 6.007110212SE6SE0
19:00 5.607210222SSE5SSE0
20:00 4.607410222SSE6SE0
21:00 5.307010223SE8SE0
22:00 4.607310223SE10SE0
23:00 4.907010223SE11SE0
minuit 3.907510234SSE10SE0

Graphique du 06-12-2019

 

Serveur OMMA